sensor_id;sensor_type;location;lat;lon;timestamp;temperature;humidity
44305;DHT22;30019;50.576;8.568;2023-02-15T00:01:44;1.00;99.90
44305;DHT22;30019;50.576;8.568;2023-02-15T00:04:13;1.00;99.90
44305;DHT22;30019;50.576;8.568;2023-02-15T00:06:39;1.00;99.90
44305;DHT22;30019;50.576;8.568;2023-02-15T00:09:04;0.90;99.90
44305;DHT22;30019;50.576;8.568;2023-02-15T00:11:30;1.00;99.90
44305;DHT22;30019;50.576;8.568;2023-02-15T00:16:34;1.00;99.90
44305;DHT22;30019;50.576;8.568;2023-02-15T00:19:00;1.00;99.90
44305;DHT22;30019;50.576;8.568;2023-02-15T00:21:30;0.90;99.90
44305;DHT22;30019;50.576;8.568;2023-02-15T00:23:58;0.90;99.90
44305;DHT22;30019;50.576;8.568;2023-02-15T00:26:24;0.90;99.90
44305;DHT22;30019;50.576;8.568;2023-02-15T00:28:49;0.80;99.90
44305;DHT22;30019;50.576;8.568;2023-02-15T00:31:15;0.80;99.90
44305;DHT22;30019;50.576;8.568;2023-02-15T00:33:41;0.80;99.90
44305;DHT22;30019;50.576;8.568;2023-02-15T00:36:08;0.80;99.90
44305;DHT22;30019;50.576;8.568;2023-02-15T00:38:35;0.80;99.90
44305;DHT22;30019;50.576;8.568;2023-02-15T00:41:02;0.70;99.90
44305;DHT22;30019;50.576;8.568;2023-02-15T00:43:30;0.70;99.90
44305;DHT22;30019;50.576;8.568;2023-02-15T00:45:56;0.70;99.90
44305;DHT22;30019;50.576;8.568;2023-02-15T00:48:22;0.60;99.90
44305;DHT22;30019;50.576;8.568;2023-02-15T00:50:57;0.60;99.90
44305;DHT22;30019;50.576;8.568;2023-02-15T00:53:24;0.70;99.90
44305;DHT22;30019;50.576;8.568;2023-02-15T00:55:50;0.70;99.90
44305;DHT22;30019;50.576;8.568;2023-02-15T00:58:16;0.70;99.90
44305;DHT22;30019;50.576;8.568;2023-02-15T01:00:45;0.70;99.90
44305;DHT22;30019;50.576;8.568;2023-02-15T01:03:13;0.70;99.90
44305;DHT22;30019;50.576;8.568;2023-02-15T01:05:39;0.70;99.90
44305;DHT22;30019;50.576;8.568;2023-02-15T01:08:05;0.80;99.90
44305;DHT22;30019;50.576;8.568;2023-02-15T01:10:33;0.80;99.90
44305;DHT22;30019;50.576;8.568;2023-02-15T01:12:58;0.70;99.90
44305;DHT22;30019;50.576;8.568;2023-02-15T01:15:24;0.70;99.90
44305;DHT22;30019;50.576;8.568;2023-02-15T01:17:50;0.60;99.90
44305;DHT22;30019;50.576;8.568;2023-02-15T01:20:25;0.60;99.90
44305;DHT22;30019;50.576;8.568;2023-02-15T01:22:51;0.60;99.90
44305;DHT22;30019;50.576;8.568;2023-02-15T01:25:18;0.70;99.90
44305;DHT22;30019;50.576;8.568;2023-02-15T01:27:44;0.70;99.90
44305;DHT22;30019;50.576;8.568;2023-02-15T01:30:11;0.70;99.90
44305;DHT22;30019;50.576;8.568;2023-02-15T01:32:36;0.70;99.90
44305;DHT22;30019;50.576;8.568;2023-02-15T01:35:02;0.50;99.90
44305;DHT22;30019;50.576;8.568;2023-02-15T01:37:30;0.50;99.90
44305;DHT22;30019;50.576;8.568;2023-02-15T01:39:56;0.50;99.90
44305;DHT22;30019;50.576;8.568;2023-02-15T01:42:26;0.50;99.90
44305;DHT22;30019;50.576;8.568;2023-02-15T01:44:57;0.50;99.90
44305;DHT22;30019;50.576;8.568;2023-02-15T01:47:40;0.50;99.90
44305;DHT22;30019;50.576;8.568;2023-02-15T01:53:24;0.60;99.90
44305;DHT22;30019;50.576;8.568;2023-02-15T01:55:57;0.60;99.90
44305;DHT22;30019;50.576;8.568;2023-02-15T01:58:26;0.50;99.90
44305;DHT22;30019;50.576;8.568;2023-02-15T02:00:54;0.60;99.90
44305;DHT22;30019;50.576;8.568;2023-02-15T02:03:36;0.60;99.90
44305;DHT22;30019;50.576;8.568;2023-02-15T02:06:04;0.60;99.90
44305;DHT22;30019;50.576;8.568;2023-02-15T02:08:30;0.60;99.90
44305;DHT22;30019;50.576;8.568;2023-02-15T02:10:56;0.60;99.90
44305;DHT22;30019;50.576;8.568;2023-02-15T02:13:22;0.60;99.90
44305;DHT22;30019;50.576;8.568;2023-02-15T02:16:01;0.50;99.90
44305;DHT22;30019;50.576;8.568;2023-02-15T02:24:53;0.50;99.90
44305;DHT22;30019;50.576;8.568;2023-02-15T02:30:10;0.50;99.90
44305;DHT22;30019;50.576;8.568;2023-02-15T02:36:02;0.50;99.90
44305;DHT22;30019;50.576;8.568;2023-02-15T02:39:22;0.50;99.90
44305;DHT22;30019;50.576;8.568;2023-02-15T02:41:31;0.40;99.90
44305;DHT22;30019;50.576;8.568;2023-02-15T02:44:12;0.40;99.90
44305;DHT22;30019;50.576;8.568;2023-02-15T02:46:54;0.40;99.90
44305;DHT22;30019;50.576;8.568;2023-02-15T02:49:39;0.40;99.90
44305;DHT22;30019;50.576;8.568;2023-02-15T02:52:33;0.40;99.90
44305;DHT22;30019;50.576;8.568;2023-02-15T02:54:53;0.40;99.90
44305;DHT22;30019;50.576;8.568;2023-02-15T02:57:20;0.40;99.90
44305;DHT22;30019;50.576;8.568;2023-02-15T02:59:48;0.40;99.90
44305;DHT22;30019;50.576;8.568;2023-02-15T03:02:21;0.40;99.90
44305;DHT22;30019;50.576;8.568;2023-02-15T03:04:52;0.40;99.90
44305;DHT22;30019;50.576;8.568;2023-02-15T03:07:25;0.40;99.90
44305;DHT22;30019;50.576;8.568;2023-02-15T03:09:54;0.50;99.90
44305;DHT22;30019;50.576;8.568;2023-02-15T03:12:25;0.50;99.90
44305;DHT22;30019;50.576;8.568;2023-02-15T03:15:01;0.50;99.90
44305;DHT22;30019;50.576;8.568;2023-02-15T03:17:29;0.50;99.90
44305;DHT22;30019;50.576;8.568;2023-02-15T03:20:02;0.50;99.90
44305;DHT22;30019;50.576;8.568;2023-02-15T03:22:33;0.40;99.90
44305;DHT22;30019;50.576;8.568;2023-02-15T03:25:07;0.50;99.90
44305;DHT22;30019;50.576;8.568;2023-02-15T03:27:41;0.50;99.90
44305;DHT22;30019;50.576;8.568;2023-02-15T03:30:09;0.50;99.90
44305;DHT22;30019;50.576;8.568;2023-02-15T03:32:37;0.50;99.90
44305;DHT22;30019;50.576;8.568;2023-02-15T03:35:03;0.50;99.90
44305;DHT22;30019;50.576;8.568;2023-02-15T03:37:41;0.50;99.90
44305;DHT22;30019;50.576;8.568;2023-02-15T03:43:02;0.50;99.90
44305;DHT22;30019;50.576;8.568;2023-02-15T03:45:31;0.40;99.90
44305;DHT22;30019;50.576;8.568;2023-02-15T03:48:00;0.50;99.90
44305;DHT22;30019;50.576;8.568;2023-02-15T03:50:32;0.50;99.90
44305;DHT22;30019;50.576;8.568;2023-02-15T03:53:19;0.50;99.90
44305;DHT22;30019;50.576;8.568;2023-02-15T03:55:50;0.60;99.90
44305;DHT22;30019;50.576;8.568;2023-02-15T03:58:18;0.50;99.90
44305;DHT22;30019;50.576;8.568;2023-02-15T04:01:14;0.50;99.90
44305;DHT22;30019;50.576;8.568;2023-02-15T04:04:09;0.50;99.90
44305;DHT22;30019;50.576;8.568;2023-02-15T04:06:35;0.50;99.90
44305;DHT22;30019;50.576;8.568;2023-02-15T04:09:01;0.50;99.90
44305;DHT22;30019;50.576;8.568;2023-02-15T04:11:45;0.50;99.90
44305;DHT22;30019;50.576;8.568;2023-02-15T04:14:11;0.50;99.90
44305;DHT22;30019;50.576;8.568;2023-02-15T04:16:55;0.50;99.90
44305;DHT22;30019;50.576;8.568;2023-02-15T04:19:21;0.40;99.90
44305;DHT22;30019;50.576;8.568;2023-02-15T04:22:05;0.50;99.90
44305;DHT22;30019;50.576;8.568;2023-02-15T04:24:49;0.40;99.90
44305;DHT22;30019;50.576;8.568;2023-02-15T04:27:33;0.40;99.90
44305;DHT22;30019;50.576;8.568;2023-02-15T04:29:59;0.40;99.90
44305;DHT22;30019;50.576;8.568;2023-02-15T04:32:24;0.40;99.90
44305;DHT22;30019;50.576;8.568;2023-02-15T04:34:50;0.30;99.90
44305;DHT22;30019;50.576;8.568;2023-02-15T04:37:16;0.40;99.90
44305;DHT22;30019;50.576;8.568;2023-02-15T04:39:41;0.40;99.90
44305;DHT22;30019;50.576;8.568;2023-02-15T04:42:07;0.30;99.90
44305;DHT22;30019;50.576;8.568;2023-02-15T04:44:32;0.40;99.90
44305;DHT22;30019;50.576;8.568;2023-02-15T04:46:58;0.30;99.90
44305;DHT22;30019;50.576;8.568;2023-02-15T04:49:23;0.40;99.90
44305;DHT22;30019;50.576;8.568;2023-02-15T04:51:49;0.40;99.90
44305;DHT22;30019;50.576;8.568;2023-02-15T04:54:14;0.40;99.90
44305;DHT22;30019;50.576;8.568;2023-02-15T04:56:40;0.40;99.90
44305;DHT22;30019;50.576;8.568;2023-02-15T04:59:10;0.40;99.90
44305;DHT22;30019;50.576;8.568;2023-02-15T05:01:35;0.40;99.90
44305;DHT22;30019;50.576;8.568;2023-02-15T05:04:01;0.40;99.90
44305;DHT22;30019;50.576;8.568;2023-02-15T05:06:26;0.40;99.90
44305;DHT22;30019;50.576;8.568;2023-02-15T05:08:52;0.40;99.90
44305;DHT22;30019;50.576;8.568;2023-02-15T05:11:18;0.40;99.90
44305;DHT22;30019;50.576;8.568;2023-02-15T05:13:43;0.40;99.90
44305;DHT22;30019;50.576;8.568;2023-02-15T05:16:09;0.50;99.90
44305;DHT22;30019;50.576;8.568;2023-02-15T05:18:34;0.40;99.90
44305;DHT22;30019;50.576;8.568;2023-02-15T05:21:00;0.40;99.90
44305;DHT22;30019;50.576;8.568;2023-02-15T05:23:25;0.40;99.90
44305;DHT22;30019;50.576;8.568;2023-02-15T05:25:51;0.40;99.90
44305;DHT22;30019;50.576;8.568;2023-02-15T05:28:36;0.40;99.90
44305;DHT22;30019;50.576;8.568;2023-02-15T05:33:30;0.40;99.90
44305;DHT22;30019;50.576;8.568;2023-02-15T05:35:55;0.40;99.90
44305;DHT22;30019;50.576;8.568;2023-02-15T05:38:21;0.40;99.90
44305;DHT22;30019;50.576;8.568;2023-02-15T05:40:46;0.40;99.90
44305;DHT22;30019;50.576;8.568;2023-02-15T05:43:12;0.50;99.90
44305;DHT22;30019;50.576;8.568;2023-02-15T05:45:37;0.50;99.90
44305;DHT22;30019;50.576;8.568;2023-02-15T05:48:03;0.60;99.90
44305;DHT22;30019;50.576;8.568;2023-02-15T05:50:29;0.50;99.90
44305;DHT22;30019;50.576;8.568;2023-02-15T05:52:54;0.50;99.90
44305;DHT22;30019;50.576;8.568;2023-02-15T05:55:20;0.50;99.90
44305;DHT22;30019;50.576;8.568;2023-02-15T05:57:46;0.50;99.90
44305;DHT22;30019;50.576;8.568;2023-02-15T06:00:12;0.50;99.90
44305;DHT22;30019;50.576;8.568;2023-02-15T06:02:39;0.50;99.90
44305;DHT22;30019;50.576;8.568;2023-02-15T06:05:05;0.50;99.90
44305;DHT22;30019;50.576;8.568;2023-02-15T06:07:31;0.50;99.90
44305;DHT22;30019;50.576;8.568;2023-02-15T06:09:57;0.50;99.90
44305;DHT22;30019;50.576;8.568;2023-02-15T06:12:23;0.50;99.90
44305;DHT22;30019;50.576;8.568;2023-02-15T06:14:48;0.50;99.90
44305;DHT22;30019;50.576;8.568;2023-02-15T06:17:14;0.50;99.90
44305;DHT22;30019;50.576;8.568;2023-02-15T06:19:40;0.50;99.90
44305;DHT22;30019;50.576;8.568;2023-02-15T06:22:05;0.50;99.90
44305;DHT22;30019;50.576;8.568;2023-02-15T06:24:31;0.50;99.90
44305;DHT22;30019;50.576;8.568;2023-02-15T06:26:57;0.50;99.90
44305;DHT22;30019;50.576;8.568;2023-02-15T06:29:23;0.50;99.90
44305;DHT22;30019;50.576;8.568;2023-02-15T06:31:49;0.60;99.90
44305;DHT22;30019;50.576;8.568;2023-02-15T06:34:14;0.60;99.90
44305;DHT22;30019;50.576;8.568;2023-02-15T06:36:40;0.60;99.90
44305;DHT22;30019;50.576;8.568;2023-02-15T06:39:05;0.60;99.90
44305;DHT22;30019;50.576;8.568;2023-02-15T06:41:31;0.60;99.90
44305;DHT22;30019;50.576;8.568;2023-02-15T06:43:57;0.60;99.90
44305;DHT22;30019;50.576;8.568;2023-02-15T06:46:23;0.60;99.90
44305;DHT22;30019;50.576;8.568;2023-02-15T06:48:48;0.60;99.90
44305;DHT22;30019;50.576;8.568;2023-02-15T06:51:14;0.60;99.90
44305;DHT22;30019;50.576;8.568;2023-02-15T06:53:40;0.60;99.90
44305;DHT22;30019;50.576;8.568;2023-02-15T06:56:09;0.60;99.90
44305;DHT22;30019;50.576;8.568;2023-02-15T06:58:41;0.70;99.90
44305;DHT22;30019;50.576;8.568;2023-02-15T07:01:08;0.70;99.90
44305;DHT22;30019;50.576;8.568;2023-02-15T07:03:34;0.70;99.90
44305;DHT22;30019;50.576;8.568;2023-02-15T07:06:02;0.70;99.90
44305;DHT22;30019;50.576;8.568;2023-02-15T07:08:28;0.80;99.90
44305;DHT22;30019;50.576;8.568;2023-02-15T07:10:55;0.70;99.90
44305;DHT22;30019;50.576;8.568;2023-02-15T07:13:41;0.80;99.90
44305;DHT22;30019;50.576;8.568;2023-02-15T07:16:08;0.70;99.90
44305;DHT22;30019;50.576;8.568;2023-02-15T07:18:34;0.70;99.90
44305;DHT22;30019;50.576;8.568;2023-02-15T07:20:59;0.70;99.90
44305;DHT22;30019;50.576;8.568;2023-02-15T07:23:25;0.70;99.90
44305;DHT22;30019;50.576;8.568;2023-02-15T07:25:59;0.70;99.90
44305;DHT22;30019;50.576;8.568;2023-02-15T07:28:26;0.70;99.90
44305;DHT22;30019;50.576;8.568;2023-02-15T07:30:51;0.70;99.90
44305;DHT22;30019;50.576;8.568;2023-02-15T07:33:17;0.70;99.90
44305;DHT22;30019;50.576;8.568;2023-02-15T07:36:17;0.70;99.90
44305;DHT22;30019;50.576;8.568;2023-02-15T07:39:03;0.80;99.90
44305;DHT22;30019;50.576;8.568;2023-02-15T07:41:29;0.80;99.90
44305;DHT22;30019;50.576;8.568;2023-02-15T07:43:54;0.70;99.90
44305;DHT22;30019;50.576;8.568;2023-02-15T07:46:20;0.80;99.90
44305;DHT22;30019;50.576;8.568;2023-02-15T07:48:46;0.80;99.90
44305;DHT22;30019;50.576;8.568;2023-02-15T07:51:14;0.80;99.90
44305;DHT22;30019;50.576;8.568;2023-02-15T07:53:40;0.80;99.90
44305;DHT22;30019;50.576;8.568;2023-02-15T07:56:15;0.80;99.90
44305;DHT22;30019;50.576;8.568;2023-02-15T07:58:41;0.80;99.90
44305;DHT22;30019;50.576;8.568;2023-02-15T08:01:16;0.80;99.90
44305;DHT22;30019;50.576;8.568;2023-02-15T08:03:42;0.90;99.90
44305;DHT22;30019;50.576;8.568;2023-02-15T08:06:08;0.90;99.90
44305;DHT22;30019;50.576;8.568;2023-02-15T08:08:34;0.90;99.90
44305;DHT22;30019;50.576;8.568;2023-02-15T08:11:07;1.00;99.90
44305;DHT22;30019;50.576;8.568;2023-02-15T08:14:12;1.00;99.90
44305;DHT22;30019;50.576;8.568;2023-02-15T08:16:40;1.10;99.90
44305;DHT22;30019;50.576;8.568;2023-02-15T08:21:43;1.00;99.90
44305;DHT22;30019;50.576;8.568;2023-02-15T08:24:10;1.10;99.90
44305;DHT22;30019;50.576;8.568;2023-02-15T08:26:54;1.10;99.90
44305;DHT22;30019;50.576;8.568;2023-02-15T08:29:23;1.10;99.90
44305;DHT22;30019;50.576;8.568;2023-02-15T08:31:52;1.10;99.90
44305;DHT22;30019;50.576;8.568;2023-02-15T08:34:19;1.20;99.90
44305;DHT22;30019;50.576;8.568;2023-02-15T08:36:45;1.30;99.90
44305;DHT22;30019;50.576;8.568;2023-02-15T08:39:12;1.20;99.90
44305;DHT22;30019;50.576;8.568;2023-02-15T08:41:43;1.20;99.90
44305;DHT22;30019;50.576;8.568;2023-02-15T08:44:09;1.20;99.90
44305;DHT22;30019;50.576;8.568;2023-02-15T08:46:38;1.30;99.90
44305;DHT22;30019;50.576;8.568;2023-02-15T08:49:04;1.30;99.90
44305;DHT22;30019;50.576;8.568;2023-02-15T08:51:32;1.30;99.90
44305;DHT22;30019;50.576;8.568;2023-02-15T08:54:00;1.30;99.90
44305;DHT22;30019;50.576;8.568;2023-02-15T08:56:29;1.30;99.90
44305;DHT22;30019;50.576;8.568;2023-02-15T08:58:55;1.40;99.90
44305;DHT22;30019;50.576;8.568;2023-02-15T09:01:27;1.40;99.90
44305;DHT22;30019;50.576;8.568;2023-02-15T09:04:01;1.40;99.90
44305;DHT22;30019;50.576;8.568;2023-02-15T09:06:28;1.50;99.90
44305;DHT22;30019;50.576;8.568;2023-02-15T09:08:54;1.50;99.90
44305;DHT22;30019;50.576;8.568;2023-02-15T09:11:25;1.50;99.90
44305;DHT22;30019;50.576;8.568;2023-02-15T09:14:00;1.50;99.90
44305;DHT22;30019;50.576;8.568;2023-02-15T09:16:28;1.60;99.90
44305;DHT22;30019;50.576;8.568;2023-02-15T09:18:55;1.60;99.90
44305;DHT22;30019;50.576;8.568;2023-02-15T09:21:23;1.60;99.90
44305;DHT22;30019;50.576;8.568;2023-02-15T09:23:51;1.70;99.90
44305;DHT22;30019;50.576;8.568;2023-02-15T09:26:21;1.80;99.90
44305;DHT22;30019;50.576;8.568;2023-02-15T09:28:51;1.70;99.90
44305;DHT22;30019;50.576;8.568;2023-02-15T09:31:19;1.80;99.90
44305;DHT22;30019;50.576;8.568;2023-02-15T09:33:47;1.80;99.90
44305;DHT22;30019;50.576;8.568;2023-02-15T09:36:24;1.70;99.90
44305;DHT22;30019;50.576;8.568;2023-02-15T09:39:10;1.70;99.90
44305;DHT22;30019;50.576;8.568;2023-02-15T09:47:12;1.90;99.90
44305;DHT22;30019;50.576;8.568;2023-02-15T09:58:20;1.90;99.90
44305;DHT22;30019;50.576;8.568;2023-02-15T10:06:47;2.00;99.90
44305;DHT22;30019;50.576;8.568;2023-02-15T10:12:40;2.00;99.90
44305;DHT22;30019;50.576;8.568;2023-02-15T10:16:06;2.10;99.90
44305;DHT22;30019;50.576;8.568;2023-02-15T10:21:29;2.20;99.90
44305;DHT22;30019;50.576;8.568;2023-02-15T10:26:45;2.20;99.90
44305;DHT22;30019;50.576;8.568;2023-02-15T10:29:31;2.40;99.90
44305;DHT22;30019;50.576;8.568;2023-02-15T10:34:37;2.40;99.90
44305;DHT22;30019;50.576;8.568;2023-02-15T10:40:28;2.30;99.90
44305;DHT22;30019;50.576;8.568;2023-02-15T10:43:16;2.40;99.90
44305;DHT22;30019;50.576;8.568;2023-02-15T10:46:07;2.40;99.90
44305;DHT22;30019;50.576;8.568;2023-02-15T11:06:13;2.40;99.90
44305;DHT22;30019;50.576;8.568;2023-02-15T11:08:43;2.40;99.90
44305;DHT22;30019;50.576;8.568;2023-02-15T11:11:15;2.40;99.90
44305;DHT22;30019;50.576;8.568;2023-02-15T11:13:48;2.50;99.90
44305;DHT22;30019;50.576;8.568;2023-02-15T11:16:19;2.40;99.90
44305;DHT22;30019;50.576;8.568;2023-02-15T11:18:53;2.40;99.90
44305;DHT22;30019;50.576;8.568;2023-02-15T11:21:34;2.40;99.90
44305;DHT22;30019;50.576;8.568;2023-02-15T11:24:14;2.50;99.90
44305;DHT22;30019;50.576;8.568;2023-02-15T11:32:25;2.70;99.90
44305;DHT22;30019;50.576;8.568;2023-02-15T11:37:43;2.70;99.90
44305;DHT22;30019;50.576;8.568;2023-02-15T11:40:30;2.80;99.90
44305;DHT22;30019;50.576;8.568;2023-02-15T11:43:05;2.90;99.90
44305;DHT22;30019;50.576;8.568;2023-02-15T11:45:33;2.90;99.90
44305;DHT22;30019;50.576;8.568;2023-02-15T11:48:00;2.90;99.90
44305;DHT22;30019;50.576;8.568;2023-02-15T11:50:31;2.80;99.90
44305;DHT22;30019;50.576;8.568;2023-02-15T11:53:09;2.90;99.90
44305;DHT22;30019;50.576;8.568;2023-02-15T11:55:35;3.00;99.90
44305;DHT22;30019;50.576;8.568;2023-02-15T11:58:25;3.10;99.90
44305;DHT22;30019;50.576;8.568;2023-02-15T12:01:10;3.10;99.90
44305;DHT22;30019;50.576;8.568;2023-02-15T12:03:40;3.10;99.90
44305;DHT22;30019;50.576;8.568;2023-02-15T12:06:16;3.10;99.90
44305;DHT22;30019;50.576;8.568;2023-02-15T12:08:51;3.10;99.90
44305;DHT22;30019;50.576;8.568;2023-02-15T12:11:27;3.00;99.90
44305;DHT22;30019;50.576;8.568;2023-02-15T12:14:00;3.10;99.90
44305;DHT22;30019;50.576;8.568;2023-02-15T12:16:28;3.20;99.90
44305;DHT22;30019;50.576;8.568;2023-02-15T12:18:57;3.30;99.90
44305;DHT22;30019;50.576;8.568;2023-02-15T12:21:30;3.20;99.90
44305;DHT22;30019;50.576;8.568;2023-02-15T12:24:02;3.10;99.90
44305;DHT22;30019;50.576;8.568;2023-02-15T12:26:31;3.00;99.90
44305;DHT22;30019;50.576;8.568;2023-02-15T12:29:00;3.00;99.90
44305;DHT22;30019;50.576;8.568;2023-02-15T12:31:39;3.00;99.90
44305;DHT22;30019;50.576;8.568;2023-02-15T12:34:21;3.00;99.90
44305;DHT22;30019;50.576;8.568;2023-02-15T12:36:49;3.00;99.90
44305;DHT22;30019;50.576;8.568;2023-02-15T12:39:24;3.00;99.90
44305;DHT22;30019;50.576;8.568;2023-02-15T12:44:33;3.00;99.90
44305;DHT22;30019;50.576;8.568;2023-02-15T12:47:02;3.00;99.90
44305;DHT22;30019;50.576;8.568;2023-02-15T12:49:29;3.10;99.90
44305;DHT22;30019;50.576;8.568;2023-02-15T12:51:58;3.00;99.90
44305;DHT22;30019;50.576;8.568;2023-02-15T12:54:35;3.00;99.90
44305;DHT22;30019;50.576;8.568;2023-02-15T12:57:30;3.00;99.90
44305;DHT22;30019;50.576;8.568;2023-02-15T13:02:58;2.90;99.90
44305;DHT22;30019;50.576;8.568;2023-02-15T13:05:44;2.90;99.90
44305;DHT22;30019;50.576;8.568;2023-02-15T13:08:45;3.00;99.90
44305;DHT22;30019;50.576;8.568;2023-02-15T13:11:13;3.00;99.90
44305;DHT22;30019;50.576;8.568;2023-02-15T13:13:55;3.00;99.90
44305;DHT22;30019;50.576;8.568;2023-02-15T13:18:56;3.00;99.90
44305;DHT22;30019;50.576;8.568;2023-02-15T13:21:26;3.00;99.90
44305;DHT22;30019;50.576;8.568;2023-02-15T13:23:57;3.10;99.90
44305;DHT22;30019;50.576;8.568;2023-02-15T13:26:28;3.10;99.90
44305;DHT22;30019;50.576;8.568;2023-02-15T13:29:28;3.10;99.90
44305;DHT22;30019;50.576;8.568;2023-02-15T13:31:55;3.10;99.90
44305;DHT22;30019;50.576;8.568;2023-02-15T13:34:33;3.10;99.90
44305;DHT22;30019;50.576;8.568;2023-02-15T13:37:24;2.90;99.90
44305;DHT22;30019;50.576;8.568;2023-02-15T13:40:03;2.90;99.90
44305;DHT22;30019;50.576;8.568;2023-02-15T13:42:39;2.80;99.90
44305;DHT22;30019;50.576;8.568;2023-02-15T13:45:32;2.80;99.90
44305;DHT22;30019;50.576;8.568;2023-02-15T13:51:03;2.70;99.90
44305;DHT22;30019;50.576;8.568;2023-02-15T13:56:18;2.60;99.90
44305;DHT22;30019;50.576;8.568;2023-02-15T14:01:45;2.60;99.90
44305;DHT22;30019;50.576;8.568;2023-02-15T14:13:19;2.50;99.90
44305;DHT22;30019;50.576;8.568;2023-02-15T14:16:23;2.50;99.90
44305;DHT22;30019;50.576;8.568;2023-02-15T14:19:34;2.40;99.90
44305;DHT22;30019;50.576;8.568;2023-02-15T14:22:33;2.40;99.90
44305;DHT22;30019;50.576;8.568;2023-02-15T14:25:38;2.50;99.90
44305;DHT22;30019;50.576;8.568;2023-02-15T14:28:45;2.40;99.90
44305;DHT22;30019;50.576;8.568;2023-02-15T14:31:49;2.30;99.90
44305;DHT22;30019;50.576;8.568;2023-02-15T14:41:42;2.40;99.90
44305;DHT22;30019;50.576;8.568;2023-02-15T14:49:24;2.40;99.90
44305;DHT22;30019;50.576;8.568;2023-02-15T14:52:05;2.40;99.90
44305;DHT22;30019;50.576;8.568;2023-02-15T15:00:50;2.50;99.90
44305;DHT22;30019;50.576;8.568;2023-02-15T15:04:22;2.40;99.90
44305;DHT22;30019;50.576;8.568;2023-02-15T15:23:42;2.40;99.90
44305;DHT22;30019;50.576;8.568;2023-02-15T15:26:30;2.40;99.90
44305;DHT22;30019;50.576;8.568;2023-02-15T15:29:00;2.30;99.90
44305;DHT22;30019;50.576;8.568;2023-02-15T15:31:51;2.30;99.90
44305;DHT22;30019;50.576;8.568;2023-02-15T15:50:51;2.20;99.90
44305;DHT22;30019;50.576;8.568;2023-02-15T16:28:49;2.00;99.90
44305;DHT22;30019;50.576;8.568;2023-02-15T16:31:16;2.00;99.90
44305;DHT22;30019;50.576;8.568;2023-02-15T16:33:42;2.00;99.90
44305;DHT22;30019;50.576;8.568;2023-02-15T16:36:27;2.00;99.90
44305;DHT22;30019;50.576;8.568;2023-02-15T16:41:27;1.90;99.90
44305;DHT22;30019;50.576;8.568;2023-02-15T16:43:54;2.00;99.90
44305;DHT22;30019;50.576;8.568;2023-02-15T16:46:32;2.00;99.90
44305;DHT22;30019;50.576;8.568;2023-02-15T16:49:14;1.90;99.90
44305;DHT22;30019;50.576;8.568;2023-02-15T16:51:41;1.90;99.90
44305;DHT22;30019;50.576;8.568;2023-02-15T16:54:17;1.90;99.90
44305;DHT22;30019;50.576;8.568;2023-02-15T16:56:44;2.00;99.90
44305;DHT22;30019;50.576;8.568;2023-02-15T16:59:28;1.90;99.90
44305;DHT22;30019;50.576;8.568;2023-02-15T17:01:54;1.90;99.90
44305;DHT22;30019;50.576;8.568;2023-02-15T17:07:04;1.90;99.90
44305;DHT22;30019;50.576;8.568;2023-02-15T17:09:31;1.90;99.90
44305;DHT22;30019;50.576;8.568;2023-02-15T17:11:57;1.90;99.90
44305;DHT22;30019;50.576;8.568;2023-02-15T17:14:31;1.90;99.90
44305;DHT22;30019;50.576;8.568;2023-02-15T17:17:32;1.90;99.90
44305;DHT22;30019;50.576;8.568;2023-02-15T17:19:51;2.00;99.90
44305;DHT22;30019;50.576;8.568;2023-02-15T17:22:23;1.90;99.90
44305;DHT22;30019;50.576;8.568;2023-02-15T17:24:58;1.90;99.90
44305;DHT22;30019;50.576;8.568;2023-02-15T17:27:25;1.90;99.90
44305;DHT22;30019;50.576;8.568;2023-02-15T17:29:57;1.80;99.90
44305;DHT22;30019;50.576;8.568;2023-02-15T17:32:26;1.90;99.90
44305;DHT22;30019;50.576;8.568;2023-02-15T17:34:59;1.90;99.90
44305;DHT22;30019;50.576;8.568;2023-02-15T17:42:46;1.80;99.90
44305;DHT22;30019;50.576;8.568;2023-02-15T17:45:12;1.90;99.90
44305;DHT22;30019;50.576;8.568;2023-02-15T17:47:38;1.80;99.90
44305;DHT22;30019;50.576;8.568;2023-02-15T17:50:05;1.80;99.90
44305;DHT22;30019;50.576;8.568;2023-02-15T17:52:31;1.80;99.90
44305;DHT22;30019;50.576;8.568;2023-02-15T17:54:57;1.80;99.90
44305;DHT22;30019;50.576;8.568;2023-02-15T17:57:41;1.70;99.90
44305;DHT22;30019;50.576;8.568;2023-02-15T18:00:12;1.80;99.90
44305;DHT22;30019;50.576;8.568;2023-02-15T18:02:56;1.70;99.90
44305;DHT22;30019;50.576;8.568;2023-02-15T18:05:40;1.80;99.90
44305;DHT22;30019;50.576;8.568;2023-02-15T18:08:26;1.70;99.90
44305;DHT22;30019;50.576;8.568;2023-02-15T18:11:12;1.70;99.90
44305;DHT22;30019;50.576;8.568;2023-02-15T18:13:57;1.70;99.90
44305;DHT22;30019;50.576;8.568;2023-02-15T18:16:27;1.70;99.90
44305;DHT22;30019;50.576;8.568;2023-02-15T18:18:54;1.70;99.90
44305;DHT22;30019;50.576;8.568;2023-02-15T18:21:20;1.60;99.90
44305;DHT22;30019;50.576;8.568;2023-02-15T18:23:45;1.60;99.90
44305;DHT22;30019;50.576;8.568;2023-02-15T18:26:19;1.60;99.90
44305;DHT22;30019;50.576;8.568;2023-02-15T18:28:46;1.60;99.90
44305;DHT22;30019;50.576;8.568;2023-02-15T18:31:12;1.70;99.90
44305;DHT22;30019;50.576;8.568;2023-02-15T18:33:43;1.80;99.90
44305;DHT22;30019;50.576;8.568;2023-02-15T18:36:16;1.80;99.90
44305;DHT22;30019;50.576;8.568;2023-02-15T18:38:42;1.80;99.90
44305;DHT22;30019;50.576;8.568;2023-02-15T18:41:14;1.80;99.90
44305;DHT22;30019;50.576;8.568;2023-02-15T18:43:41;1.80;99.90
44305;DHT22;30019;50.576;8.568;2023-02-15T18:46:07;1.90;99.90
44305;DHT22;30019;50.576;8.568;2023-02-15T18:48:32;1.80;99.90
44305;DHT22;30019;50.576;8.568;2023-02-15T18:50:58;1.80;99.90
44305;DHT22;30019;50.576;8.568;2023-02-15T18:53:24;1.80;99.90
44305;DHT22;30019;50.576;8.568;2023-02-15T18:55:49;1.70;99.90
44305;DHT22;30019;50.576;8.568;2023-02-15T18:58:18;1.70;99.90
44305;DHT22;30019;50.576;8.568;2023-02-15T19:00:44;1.80;99.90
44305;DHT22;30019;50.576;8.568;2023-02-15T19:03:12;1.70;99.90
44305;DHT22;30019;50.576;8.568;2023-02-15T19:05:40;1.80;99.90
44305;DHT22;30019;50.576;8.568;2023-02-15T19:08:16;1.70;99.90
44305;DHT22;30019;50.576;8.568;2023-02-15T19:10:43;1.70;99.90
44305;DHT22;30019;50.576;8.568;2023-02-15T19:13:10;1.70;99.90
44305;DHT22;30019;50.576;8.568;2023-02-15T19:15:35;1.60;99.90
44305;DHT22;30019;50.576;8.568;2023-02-15T19:18:01;1.60;99.90
44305;DHT22;30019;50.576;8.568;2023-02-15T19:20:30;1.60;99.90
44305;DHT22;30019;50.576;8.568;2023-02-15T19:22:58;1.60;99.90
44305;DHT22;30019;50.576;8.568;2023-02-15T19:25:27;1.60;99.90
44305;DHT22;30019;50.576;8.568;2023-02-15T19:27:54;1.60;99.90
44305;DHT22;30019;50.576;8.568;2023-02-15T19:30:30;1.50;99.90
44305;DHT22;30019;50.576;8.568;2023-02-15T19:32:57;1.60;99.90
44305;DHT22;30019;50.576;8.568;2023-02-15T19:35:25;1.60;99.90
44305;DHT22;30019;50.576;8.568;2023-02-15T19:37:57;1.50;99.90
44305;DHT22;30019;50.576;8.568;2023-02-15T19:40:26;1.50;99.90
44305;DHT22;30019;50.576;8.568;2023-02-15T19:42:52;1.50;99.90
44305;DHT22;30019;50.576;8.568;2023-02-15T19:45:21;1.50;99.90